createdAt,value
2022-08-20T00:01:01.793Z,22.14
2022-08-20T00:03:41.445Z,22.13
2022-08-20T00:06:19.419Z,22.11
2022-08-20T00:08:46.798Z,22.08
2022-08-20T00:11:18.328Z,22.06
2022-08-20T00:13:54.118Z,22.05
2022-08-20T00:16:22.570Z,22.05
2022-08-20T00:18:49.318Z,22.04
2022-08-20T00:21:19.082Z,22.05
2022-08-20T00:23:48.221Z,22.04
2022-08-20T00:26:15.513Z,22.05
2022-08-20T00:28:41.946Z,22.05
2022-08-20T00:31:11.151Z,22.05
2022-08-20T00:33:38.399Z,22.05
2022-08-20T00:36:10.698Z,22.04
2022-08-20T00:38:38.396Z,22.02
2022-08-20T00:41:05.097Z,22.00
2022-08-20T00:43:46.838Z,21.98
2022-08-20T00:46:31.294Z,21.96
2022-08-20T00:48:59.960Z,21.92
2022-08-20T00:51:40.972Z,21.90
2022-08-20T00:54:34.458Z,21.89
2022-08-20T00:57:09.089Z,21.88
2022-08-20T00:59:38.177Z,21.87
2022-08-20T01:02:08.238Z,21.86
2022-08-20T01:04:35.375Z,21.85
2022-08-20T01:07:05.314Z,21.84
2022-08-20T01:09:49.533Z,21.81
2022-08-20T01:12:18.986Z,21.79
2022-08-20T01:14:45.849Z,21.76
2022-08-20T01:17:18.807Z,21.75
2022-08-20T01:19:51.928Z,21.74
2022-08-20T01:22:44.705Z,21.74
2022-08-20T01:25:17.180Z,21.73
2022-08-20T01:27:45.029Z,21.73
2022-08-20T01:30:12.589Z,21.71
2022-08-20T01:32:39.064Z,21.70
2022-08-20T01:35:06.003Z,21.69
2022-08-20T01:37:32.440Z,21.69
2022-08-20T01:39:59.425Z,21.68
2022-08-20T01:42:38.078Z,21.67
2022-08-20T01:45:26.926Z,21.66
2022-08-20T01:47:54.545Z,21.67
2022-08-20T01:50:24.636Z,21.65
2022-08-20T01:53:08.753Z,21.65
2022-08-20T01:55:35.213Z,21.65
2022-08-20T01:58:02.002Z,21.65
2022-08-20T02:00:28.543Z,21.64
2022-08-20T02:02:55.073Z,21.62
2022-08-20T02:05:22.601Z,21.62
2022-08-20T02:07:49.148Z,21.61
2022-08-20T02:10:16.985Z,21.59
2022-08-20T02:12:43.572Z,21.58
2022-08-20T02:15:11.156Z,21.57
2022-08-20T02:17:39.195Z,21.58
2022-08-20T02:20:18.594Z,21.56
2022-08-20T02:22:53.918Z,21.55
2022-08-20T02:25:23.578Z,21.55
2022-08-20T02:27:52.353Z,21.53
2022-08-20T02:30:28.176Z,21.51
2022-08-20T02:32:56.461Z,21.51
2022-08-20T02:35:23.646Z,21.50
2022-08-20T02:37:50.876Z,21.50
2022-08-20T02:40:30.081Z,21.49
2022-08-20T02:42:58.084Z,21.48
2022-08-20T02:45:24.689Z,21.47
2022-08-20T02:47:54.271Z,21.46
2022-08-20T02:50:22.892Z,21.46
2022-08-20T02:52:52.002Z,21.46
2022-08-20T02:55:27.966Z,21.46
2022-08-20T02:57:59.870Z,21.45
2022-08-20T03:00:27.585Z,21.45
2022-08-20T03:02:54.034Z,21.43
2022-08-20T03:05:20.542Z,21.42
2022-08-20T03:07:50.340Z,21.43
2022-08-20T03:10:17.421Z,21.42
2022-08-20T03:12:43.893Z,21.42
2022-08-20T03:15:17.557Z,21.42
2022-08-20T03:17:45.041Z,21.40
2022-08-20T03:20:12.084Z,21.40
2022-08-20T03:22:38.513Z,21.41
2022-08-20T03:25:05.282Z,21.41
2022-08-20T03:27:36.129Z,21.42
2022-08-20T03:30:05.872Z,21.42
2022-08-20T03:32:32.366Z,21.42
2022-08-20T03:34:58.814Z,21.41
2022-08-20T03:37:25.359Z,21.41
2022-08-20T03:39:52.086Z,21.39
2022-08-20T03:42:18.622Z,21.38
2022-08-20T03:44:45.055Z,21.39
2022-08-20T03:47:11.845Z,21.38
2022-08-20T03:49:38.291Z,21.37
2022-08-20T03:52:04.919Z,21.37
2022-08-20T03:54:31.893Z,21.34
2022-08-20T03:56:59.335Z,21.33
2022-08-20T03:59:25.831Z,21.31
2022-08-20T04:01:52.639Z,21.30
2022-08-20T04:04:20.463Z,21.29
2022-08-20T04:06:47.569Z,21.28
2022-08-20T04:09:14.490Z,21.26
2022-08-20T04:11:41.873Z,21.25
2022-08-20T04:14:10.428Z,21.24
2022-08-20T04:16:39.395Z,21.23
2022-08-20T04:19:06.219Z,21.24
2022-08-20T04:21:35.081Z,21.24
2022-08-20T04:24:04.246Z,21.23
2022-08-20T04:26:31.473Z,21.24
2022-08-20T04:28:58.087Z,21.23
2022-08-20T04:31:25.393Z,21.25
2022-08-20T04:33:52.020Z,21.26
2022-08-20T04:36:18.457Z,21.26
2022-08-20T04:38:47.832Z,21.27
2022-08-20T04:41:23.191Z,21.28
2022-08-20T04:43:51.807Z,21.28
2022-08-20T04:46:19.244Z,21.30
2022-08-20T04:48:48.699Z,21.28
2022-08-20T04:51:16.994Z,21.29
2022-08-20T04:53:51.994Z,21.30
2022-08-20T04:56:23.166Z,21.33
2022-08-20T04:58:51.311Z,21.35
2022-08-20T05:01:17.941Z,21.36
2022-08-20T05:03:44.559Z,21.37
2022-08-20T05:06:11.979Z,21.40
2022-08-20T05:08:39.489Z,21.44
2022-08-20T05:11:33.692Z,21.47
2022-08-20T05:13:53.555Z,21.49
2022-08-20T05:16:20.892Z,21.51
2022-08-20T05:18:52.338Z,21.53
2022-08-20T05:21:20.033Z,21.55
2022-08-20T05:23:46.495Z,21.58
2022-08-20T05:26:15.697Z,21.59
2022-08-20T05:28:58.036Z,21.62
2022-08-20T05:31:31.889Z,21.65
2022-08-20T05:34:03.810Z,21.67
2022-08-20T05:36:30.270Z,21.69
2022-08-20T05:38:56.869Z,21.72
2022-08-20T05:41:28.932Z,21.73
2022-08-20T05:43:56.022Z,21.74
2022-08-20T05:46:22.963Z,21.77
2022-08-20T05:48:50.679Z,21.78
2022-08-20T05:51:17.582Z,21.81
2022-08-20T05:53:44.085Z,21.84
2022-08-20T05:56:13.311Z,21.87
2022-08-20T05:58:39.783Z,21.87
2022-08-20T06:01:06.332Z,21.87
2022-08-20T06:03:51.272Z,21.88
2022-08-20T06:06:18.378Z,21.89
2022-08-20T06:09:04.462Z,21.92
2022-08-20T06:11:36.824Z,21.92
2022-08-20T06:14:03.892Z,21.92
2022-08-20T06:16:30.767Z,21.93
2022-08-20T06:18:58.517Z,21.96
2022-08-20T06:21:25.131Z,21.95
2022-08-20T06:23:57.609Z,21.97
2022-08-20T06:26:29.994Z,22.02
2022-08-20T06:28:58.623Z,22.09
2022-08-20T06:31:25.071Z,22.14
2022-08-20T06:33:51.570Z,22.20
2022-08-20T06:36:18.780Z,22.25
2022-08-20T06:38:46.274Z,22.32
2022-08-20T06:41:12.953Z,22.40
2022-08-20T06:43:39.439Z,22.47
2022-08-20T06:46:06.849Z,22.53
2022-08-20T06:48:34.170Z,22.59
2022-08-20T06:51:01.368Z,22.68
2022-08-20T06:53:28.838Z,22.73
2022-08-20T06:55:55.974Z,22.75
2022-08-20T06:58:37.628Z,22.83
2022-08-20T07:01:09.948Z,22.90
2022-08-20T07:03:38.250Z,22.84
2022-08-20T07:06:05.357Z,22.84
2022-08-20T07:08:31.791Z,22.85
2022-08-20T07:10:59.487Z,22.80
2022-08-20T07:13:25.956Z,22.86
2022-08-20T07:15:54.109Z,22.86
2022-08-20T07:18:27.765Z,22.90
2022-08-20T07:20:57.377Z,22.84
2022-08-20T07:23:25.407Z,22.84
2022-08-20T07:25:51.895Z,22.81
2022-08-20T07:28:21.852Z,22.84
2022-08-20T07:31:12.324Z,22.86
2022-08-20T07:33:41.662Z,22.90
2022-08-20T07:36:08.982Z,22.92
2022-08-20T07:38:36.619Z,22.94
2022-08-20T07:41:09.844Z,22.99
2022-08-20T07:43:36.336Z,23.01
2022-08-20T07:46:08.721Z,23.04
2022-08-20T07:48:38.045Z,23.11
2022-08-20T07:51:05.375Z,23.14
2022-08-20T07:53:37.454Z,23.15
2022-08-20T07:56:05.931Z,23.22
2022-08-20T07:58:33.467Z,23.23
2022-08-20T08:01:00.442Z,23.23
2022-08-20T08:03:40.558Z,23.26
2022-08-20T08:06:14.950Z,23.30
2022-08-20T08:08:44.727Z,23.29
2022-08-20T08:11:11.257Z,23.30
2022-08-20T08:13:40.439Z,23.31
2022-08-20T08:16:08.819Z,23.33
2022-08-20T08:18:42.411Z,23.35
2022-08-20T08:21:09.822Z,23.40
2022-08-20T08:23:36.280Z,23.47
2022-08-20T08:26:03.085Z,23.50
2022-08-20T08:28:30.530Z,23.47
2022-08-20T08:30:57.622Z,23.53
2022-08-20T08:33:30.915Z,23.52
2022-08-20T08:36:12.414Z,23.55
2022-08-20T08:38:41.288Z,23.54
2022-08-20T08:41:21.543Z,23.55
2022-08-20T08:43:50.572Z,23.54
2022-08-20T08:46:22.466Z,23.60
2022-08-20T08:48:51.048Z,23.69
2022-08-20T08:51:24.831Z,23.72
2022-08-20T08:53:54.724Z,23.81
2022-08-20T08:56:24.431Z,23.84
2022-08-20T08:58:50.898Z,23.90
2022-08-20T09:01:55.615Z,23.98
2022-08-20T09:04:06.958Z,24.04
2022-08-20T09:06:33.434Z,24.06
2022-08-20T09:09:02.860Z,24.13
2022-08-20T09:11:29.716Z,24.08
2022-08-20T09:13:56.705Z,24.17
2022-08-20T09:16:24.418Z,24.19
2022-08-20T09:18:52.751Z,24.27
2022-08-20T09:21:19.435Z,24.31
2022-08-20T09:23:46.135Z,24.33
2022-08-20T09:26:13.588Z,24.42
2022-08-20T09:28:40.085Z,24.42
2022-08-20T09:31:06.524Z,24.48
2022-08-20T09:33:33.532Z,24.55
2022-08-20T09:36:00.054Z,24.59
2022-08-20T09:38:26.539Z,24.71
2022-08-20T09:40:53.122Z,24.79
2022-08-20T09:43:19.584Z,24.87
2022-08-20T09:45:46.015Z,24.88
2022-08-20T09:48:12.472Z,24.93
2022-08-20T09:50:44.237Z,24.79
2022-08-20T09:53:10.962Z,24.98
2022-08-20T09:55:39.401Z,25.10
2022-08-20T09:58:22.932Z,25.19
2022-08-20T10:00:49.427Z,25.23
2022-08-20T10:03:16.402Z,25.28
2022-08-20T10:05:43.229Z,25.29
2022-08-20T10:08:10.646Z,25.34
2022-08-20T10:10:37.367Z,25.47
2022-08-20T10:13:03.842Z,25.53
2022-08-20T10:15:30.886Z,25.47
2022-08-20T10:17:57.628Z,25.62
2022-08-20T10:20:25.608Z,25.75
2022-08-20T10:22:52.058Z,25.87
2022-08-20T10:25:18.866Z,25.87
2022-08-20T10:27:45.473Z,25.93
2022-08-20T10:30:12.229Z,25.97
2022-08-20T10:32:38.690Z,25.94
2022-08-20T10:35:05.345Z,25.77
2022-08-20T10:37:31.843Z,25.89
2022-08-20T10:39:58.342Z,25.89
2022-08-20T10:42:24.865Z,25.85
2022-08-20T10:44:51.518Z,25.82
2022-08-20T10:47:23.614Z,25.77
2022-08-20T10:49:52.081Z,25.63
2022-08-20T10:52:19.344Z,25.62
2022-08-20T10:54:46.462Z,25.59
2022-08-20T10:57:16.446Z,25.55
2022-08-20T10:59:44.729Z,25.49
2022-08-20T11:02:11.474Z,25.31
2022-08-20T11:04:38.186Z,25.16
2022-08-20T11:07:50.823Z,25.18
2022-08-20T11:10:13.993Z,25.15
2022-08-20T11:12:40.577Z,25.09
2022-08-20T11:15:09.421Z,24.98
2022-08-20T11:17:39.158Z,24.97
2022-08-20T11:20:10.523Z,24.98
2022-08-20T11:22:37.185Z,24.93
2022-08-20T11:25:05.502Z,25.01
2022-08-20T11:27:42.020Z,25.02
2022-08-20T11:30:12.032Z,24.97
2022-08-20T11:32:38.504Z,25.08
2022-08-20T11:35:24.501Z,25.14
2022-08-20T11:37:52.851Z,25.12
2022-08-20T11:40:19.692Z,25.12
2022-08-20T11:43:12.653Z,25.16
2022-08-20T11:45:37.650Z,25.12
2022-08-20T11:48:04.726Z,25.02
2022-08-20T11:50:31.202Z,25.03
2022-08-20T11:52:57.729Z,25.07
2022-08-20T11:55:29.946Z,25.04
2022-08-20T11:57:57.190Z,25.12
2022-08-20T12:00:31.946Z,25.12
2022-08-20T12:03:00.102Z,25.05
2022-08-20T12:05:27.380Z,25.06
2022-08-20T12:07:53.859Z,25.08
2022-08-20T12:10:20.539Z,25.12
2022-08-20T12:12:47.003Z,25.18
2022-08-20T12:15:13.497Z,25.23
2022-08-20T12:17:39.994Z,25.33
2022-08-20T12:20:10.415Z,25.45
2022-08-20T12:22:37.012Z,25.52
2022-08-20T12:25:04.502Z,25.62
2022-08-20T12:27:32.312Z,25.68
2022-08-20T12:30:01.058Z,25.75
2022-08-20T12:32:29.682Z,25.74
2022-08-20T12:34:56.850Z,25.85
2022-08-20T12:37:26.025Z,25.80
2022-08-20T12:39:55.378Z,25.89
2022-08-20T12:42:21.875Z,25.91
2022-08-20T12:44:48.655Z,25.97
2022-08-20T12:47:28.373Z,25.97
2022-08-20T12:50:02.909Z,25.96
2022-08-20T12:52:32.054Z,26.05
2022-08-20T12:54:58.978Z,25.99
2022-08-20T12:57:37.374Z,26.06
2022-08-20T13:00:10.645Z,26.00
2022-08-20T13:02:38.624Z,26.08
2022-08-20T13:05:05.904Z,26.13
2022-08-20T13:07:32.955Z,26.16
2022-08-20T13:10:00.286Z,26.16
2022-08-20T13:12:27.323Z,26.20
2022-08-20T13:14:53.893Z,26.25
2022-08-20T13:17:20.454Z,26.26
2022-08-20T13:20:04.265Z,26.26
2022-08-20T13:22:30.705Z,26.26
2022-08-20T13:24:57.174Z,26.19
2022-08-20T13:27:24.635Z,26.26
2022-08-20T13:29:57.867Z,26.37
2022-08-20T13:32:25.241Z,26.45
2022-08-20T13:34:51.670Z,26.50
2022-08-20T13:37:24.950Z,26.51
2022-08-20T13:39:52.042Z,26.59
2022-08-20T13:42:18.631Z,26.66
2022-08-20T13:44:45.069Z,26.46
2022-08-20T13:47:16.114Z,26.58
2022-08-20T13:49:42.553Z,26.59
2022-08-20T13:52:09.025Z,26.53
2022-08-20T13:54:35.480Z,26.53
2022-08-20T13:57:09.273Z,26.52
2022-08-20T13:59:37.935Z,26.37
2022-08-20T14:02:07.302Z,26.39
2022-08-20T14:04:34.799Z,26.29
2022-08-20T14:07:15.707Z,26.42
2022-08-20T14:09:44.474Z,26.46
2022-08-20T14:12:11.645Z,26.40
2022-08-20T14:14:38.077Z,26.49
2022-08-20T14:17:20.386Z,26.44
2022-08-20T14:19:48.030Z,26.43
2022-08-20T14:22:17.362Z,26.41
2022-08-20T14:24:44.893Z,26.44
2022-08-20T14:27:13.392Z,26.45
2022-08-20T14:29:41.582Z,26.37
2022-08-20T14:32:08.671Z,26.44
2022-08-20T14:34:35.667Z,26.48
2022-08-20T14:37:18.492Z,26.46
2022-08-20T14:39:47.461Z,26.43
2022-08-20T14:42:14.104Z,26.41
2022-08-20T14:44:41.087Z,26.39
2022-08-20T14:47:17.406Z,26.36
2022-08-20T14:49:44.971Z,26.34
2022-08-20T14:52:12.709Z,26.24
2022-08-20T14:54:39.999Z,26.22
2022-08-20T14:57:08.825Z,26.18
2022-08-20T14:59:41.037Z,25.98
2022-08-20T15:02:09.794Z,25.67
2022-08-20T15:04:37.011Z,25.69
2022-08-20T15:07:11.093Z,25.59
2022-08-20T15:09:40.049Z,25.62
2022-08-20T15:12:06.534Z,25.62
2022-08-20T15:14:33.000Z,25.68
2022-08-20T15:17:00.065Z,25.71
2022-08-20T15:19:26.511Z,25.68
2022-08-20T15:21:52.942Z,25.59
2022-08-20T15:24:19.694Z,25.52
2022-08-20T15:26:46.355Z,25.61
2022-08-20T15:29:13.294Z,25.65
2022-08-20T15:31:49.507Z,25.64
2022-08-20T15:34:17.771Z,25.77
2022-08-20T15:36:44.620Z,25.75
2022-08-20T15:39:11.068Z,25.71
2022-08-20T15:41:37.492Z,25.61
2022-08-20T15:44:04.067Z,25.64
2022-08-20T15:46:33.619Z,25.61
2022-08-20T15:49:04.072Z,25.57
2022-08-20T15:51:40.694Z,25.49
2022-08-20T15:54:16.405Z,25.49
2022-08-20T15:57:05.806Z,25.54
2022-08-20T15:59:52.037Z,25.53
2022-08-20T16:02:48.053Z,25.50
2022-08-20T16:05:28.400Z,25.56
2022-08-20T16:08:25.577Z,25.57
2022-08-20T16:11:19.968Z,25.64
2022-08-20T16:14:03.254Z,25.68
2022-08-20T16:16:33.930Z,25.76
2022-08-20T16:19:00.644Z,25.82
2022-08-20T16:21:38.376Z,25.82
2022-08-20T16:24:06.108Z,25.87
2022-08-20T16:26:51.286Z,25.92
2022-08-20T16:29:19.843Z,25.86
2022-08-20T16:31:50.203Z,25.87
2022-08-20T16:34:34.887Z,25.99
2022-08-20T16:37:25.162Z,26.17
2022-08-20T16:40:08.371Z,26.46
2022-08-20T16:42:37.850Z,26.61
2022-08-20T16:45:07.476Z,26.69
2022-08-20T16:47:36.105Z,26.95
2022-08-20T16:50:12.869Z,27.33
2022-08-20T16:52:42.617Z,27.56
2022-08-20T16:55:09.602Z,27.87
2022-08-20T16:57:36.087Z,27.99
2022-08-20T17:00:24.938Z,28.59
2022-08-20T17:02:59.992Z,30.22
2022-08-20T17:05:31.476Z,31.63
2022-08-20T17:08:03.664Z,32.45
2022-08-20T17:10:55.470Z,33.27
2022-08-20T17:13:28.131Z,33.66
2022-08-20T17:15:58.508Z,33.52
2022-08-20T17:18:37.004Z,32.53
2022-08-20T17:21:07.820Z,31.73
2022-08-20T17:23:54.789Z,30.91
2022-08-20T17:26:32.276Z,30.26
2022-08-20T17:29:00.735Z,29.76
2022-08-20T17:31:39.244Z,29.20
2022-08-20T17:34:05.947Z,28.88
2022-08-20T17:36:34.161Z,28.56
2022-08-20T17:39:01.308Z,28.25
2022-08-20T17:41:31.421Z,27.91
2022-08-20T17:44:09.141Z,27.70
2022-08-20T17:46:41.795Z,27.48
2022-08-20T17:49:10.666Z,27.31
2022-08-20T17:51:47.425Z,26.93
2022-08-20T17:54:29.363Z,26.83
2022-08-20T17:57:02.188Z,26.74
2022-08-20T18:00:01.505Z,26.64
2022-08-20T18:02:19.463Z,26.53
2022-08-20T18:04:47.092Z,26.46
2022-08-20T18:07:35.702Z,26.39
2022-08-20T18:10:05.114Z,26.28
2022-08-20T18:12:37.033Z,26.20
2022-08-20T18:15:20.246Z,26.08
2022-08-20T18:17:56.171Z,26.01
2022-08-20T18:21:05.453Z,25.91
2022-08-20T18:23:37.739Z,25.84
2022-08-20T18:26:17.699Z,25.76
2022-08-20T18:28:47.240Z,25.69
2022-08-20T18:31:33.773Z,25.63
2022-08-20T18:34:11.335Z,25.59
2022-08-20T18:36:37.777Z,25.54
2022-08-20T18:39:11.042Z,25.50
2022-08-20T18:41:41.450Z,25.45
2022-08-20T18:44:13.652Z,25.39
2022-08-20T18:46:54.378Z,25.33
2022-08-20T18:49:32.763Z,25.27
2022-08-20T18:52:09.277Z,25.23
2022-08-20T18:54:36.290Z,25.17
2022-08-20T18:57:06.235Z,25.10
2022-08-20T18:59:37.051Z,25.04
2022-08-20T19:02:14.933Z,24.98
2022-08-20T19:04:42.075Z,24.92
2022-08-20T19:07:11.326Z,24.88
2022-08-20T19:10:12.931Z,24.83
2022-08-20T19:13:33.470Z,24.75
2022-08-20T19:16:09.383Z,24.67
2022-08-20T19:18:51.715Z,24.60
2022-08-20T19:21:42.311Z,24.53
2022-08-20T19:24:09.506Z,24.49
2022-08-20T19:26:42.828Z,24.43
2022-08-20T19:29:14.108Z,24.38
2022-08-20T19:31:41.773Z,24.34
2022-08-20T19:34:21.719Z,24.31
2022-08-20T19:37:02.303Z,24.28
2022-08-20T19:39:50.585Z,24.22
2022-08-20T19:42:20.524Z,24.19
2022-08-20T19:45:03.281Z,24.15
2022-08-20T19:47:31.438Z,24.12
2022-08-20T19:50:22.117Z,24.04
2022-08-20T19:53:29.916Z,24.00
2022-08-20T19:56:02.434Z,23.94
2022-08-20T19:58:31.137Z,23.89
2022-08-20T20:00:58.183Z,23.84
2022-08-20T20:03:32.072Z,23.80
2022-08-20T20:06:16.134Z,23.74
2022-08-20T20:08:58.818Z,23.68
2022-08-20T20:11:49.856Z,23.62
2022-08-20T20:14:17.737Z,23.58
2022-08-20T20:16:49.747Z,23.52
2022-08-20T20:19:26.338Z,23.49
2022-08-20T20:22:17.336Z,23.45
2022-08-20T20:24:50.781Z,23.39
2022-08-20T20:27:25.887Z,23.31
2022-08-20T20:30:06.221Z,23.30
2022-08-20T20:32:33.951Z,23.26
2022-08-20T20:35:03.178Z,23.22
2022-08-20T20:37:49.922Z,23.15
2022-08-20T20:40:48.432Z,23.11
2022-08-20T20:43:34.469Z,23.03
2022-08-20T20:46:12.565Z,22.99
2022-08-20T20:48:52.070Z,22.93
2022-08-20T20:51:25.004Z,22.88
2022-08-20T20:53:55.006Z,22.83
2022-08-20T20:56:42.387Z,22.77
2022-08-20T20:59:10.778Z,22.72
2022-08-20T21:01:48.274Z,22.67
2022-08-20T21:04:19.968Z,22.62
2022-08-20T21:06:46.439Z,22.60
2022-08-20T21:09:12.960Z,22.57
2022-08-20T21:11:39.405Z,22.54
2022-08-20T21:14:05.853Z,22.53
2022-08-20T21:16:32.365Z,22.51
2022-08-20T21:18:58.816Z,22.52
2022-08-20T21:21:25.278Z,22.50
2022-08-20T21:23:51.737Z,22.47
2022-08-20T21:26:18.671Z,22.45
2022-08-20T21:28:45.127Z,22.43
2022-08-20T21:31:11.591Z,22.39
2022-08-20T21:33:38.060Z,22.39
2022-08-20T21:36:04.572Z,22.39
2022-08-20T21:38:31.016Z,22.38
2022-08-20T21:40:58.198Z,22.37
2022-08-20T21:43:24.932Z,22.34
2022-08-20T21:45:51.583Z,22.30
2022-08-20T21:48:18.714Z,22.28
2022-08-20T21:50:45.148Z,22.28
2022-08-20T21:53:13.156Z,22.27
2022-08-20T21:55:40.297Z,22.23
2022-08-20T21:58:06.925Z,22.21
2022-08-20T22:01:00.823Z,22.15
2022-08-20T22:03:29.644Z,22.10
2022-08-20T22:05:58.866Z,22.05
2022-08-20T22:08:28.642Z,21.86
2022-08-20T22:10:57.009Z,21.79
2022-08-20T22:13:24.586Z,21.71
2022-08-20T22:15:51.054Z,21.69
2022-08-20T22:18:17.706Z,21.69
2022-08-20T22:20:44.450Z,21.67
2022-08-20T22:23:11.572Z,21.65
2022-08-20T22:25:38.041Z,21.62
2022-08-20T22:28:04.839Z,21.61
2022-08-20T22:30:31.514Z,21.61
2022-08-20T22:33:02.010Z,21.61
2022-08-20T22:35:29.289Z,21.59
2022-08-20T22:37:55.743Z,21.59
2022-08-20T22:40:22.250Z,21.58
2022-08-20T22:42:48.714Z,21.60
2022-08-20T22:45:15.239Z,21.59
2022-08-20T22:47:42.203Z,21.55
2022-08-20T22:50:09.566Z,21.57
2022-08-20T22:52:37.415Z,21.53
2022-08-20T22:55:05.959Z,21.54
2022-08-20T22:57:34.227Z,21.54
2022-08-20T23:00:01.199Z,21.52
2022-08-20T23:02:27.703Z,21.51
2022-08-20T23:04:54.241Z,21.50
2022-08-20T23:07:20.748Z,21.48
2022-08-20T23:09:47.186Z,21.48
2022-08-20T23:12:13.640Z,21.46
2022-08-20T23:14:40.058Z,21.45
2022-08-20T23:17:18.985Z,21.43
2022-08-20T23:19:47.325Z,21.42
2022-08-20T23:22:14.024Z,21.41
2022-08-20T23:24:40.594Z,21.41
2022-08-20T23:27:08.070Z,21.40
2022-08-20T23:29:34.538Z,21.39
2022-08-20T23:32:01.005Z,21.38
2022-08-20T23:34:27.723Z,21.36
2022-08-20T23:36:55.817Z,21.38
2022-08-20T23:39:22.732Z,21.39
2022-08-20T23:41:49.206Z,21.38
2022-08-20T23:44:26.127Z,21.37
2022-08-20T23:46:55.074Z,21.38
2022-08-20T23:49:21.633Z,21.36
2022-08-20T23:51:48.153Z,21.35
2022-08-20T23:54:14.597Z,21.35
2022-08-20T23:56:41.036Z,21.35
2022-08-20T23:59:07.477Z,21.34
